createdAt,value
2023-03-12T00:00:21.728Z,3.92
2023-03-12T00:01:24.782Z,3.96
2023-03-12T00:02:26.695Z,4.00
2023-03-12T00:03:28.566Z,4.01
2023-03-12T00:04:31.665Z,4.03
2023-03-12T00:05:33.580Z,4.04
2023-03-12T00:06:35.330Z,4.05
2023-03-12T00:07:37.100Z,4.04
2023-03-12T00:08:39.525Z,4.05
2023-03-12T00:09:41.299Z,4.03
2023-03-12T00:10:43.168Z,4.01
2023-03-12T00:11:44.958Z,3.91
2023-03-12T00:12:46.952Z,3.89
2023-03-12T00:13:52.080Z,3.89
2023-03-12T00:14:53.871Z,3.87
2023-03-12T00:15:55.734Z,3.87
2023-03-12T00:16:57.625Z,3.86
2023-03-12T00:17:59.431Z,3.78
2023-03-12T00:19:01.633Z,3.75
2023-03-12T00:20:03.909Z,3.75
2023-03-12T00:21:06.295Z,3.80
2023-03-12T00:22:08.119Z,3.83
2023-03-12T00:23:09.927Z,3.79
2023-03-12T00:24:11.796Z,3.79
2023-03-12T00:25:15.361Z,3.79
2023-03-12T00:26:17.973Z,3.80
2023-03-12T00:27:20.263Z,3.78
2023-03-12T00:28:22.104Z,3.80
2023-03-12T00:29:23.889Z,3.75
2023-03-12T00:30:28.856Z,3.70
2023-03-12T00:31:33.078Z,3.70
2023-03-12T00:32:35.583Z,3.72
2023-03-12T00:33:37.443Z,3.77
2023-03-12T00:34:39.275Z,3.76
2023-03-12T00:35:41.171Z,3.71
2023-03-12T00:36:43.103Z,3.70
2023-03-12T00:37:44.961Z,3.66
2023-03-12T00:38:46.808Z,3.55
2023-03-12T00:39:48.663Z,3.47
2023-03-12T00:40:50.516Z,3.43
2023-03-12T00:41:52.366Z,3.42
2023-03-12T00:42:54.124Z,3.40
2023-03-12T00:43:56.292Z,3.32
2023-03-12T00:44:58.074Z,3.20
2023-03-12T00:45:59.827Z,3.19
2023-03-12T00:47:01.782Z,3.18
2023-03-12T00:48:03.989Z,3.20
2023-03-12T00:49:05.764Z,3.20
2023-03-12T00:50:07.728Z,3.18
2023-03-12T00:51:09.649Z,3.16
2023-03-12T00:52:11.755Z,3.17
2023-03-12T00:53:13.500Z,3.22
2023-03-12T00:54:15.312Z,3.28
2023-03-12T00:55:17.204Z,3.32
2023-03-12T00:56:19.028Z,3.35
2023-03-12T00:57:20.933Z,3.29
2023-03-12T00:58:22.770Z,3.27
2023-03-12T00:59:24.592Z,3.23
2023-03-12T01:00:26.481Z,3.23
2023-03-12T01:01:28.481Z,3.25
2023-03-12T01:02:30.352Z,3.15
2023-03-12T01:03:32.153Z,3.10
2023-03-12T01:04:33.995Z,3.09
2023-03-12T01:05:38.138Z,3.10
2023-03-12T01:06:39.936Z,3.13
2023-03-12T01:07:42.016Z,3.15
2023-03-12T01:08:43.989Z,3.18
2023-03-12T01:09:45.752Z,3.19
2023-03-12T01:10:47.572Z,3.16
2023-03-12T01:11:49.521Z,3.18
2023-03-12T01:12:51.392Z,3.19
2023-03-12T01:13:53.305Z,3.21
2023-03-12T01:14:55.135Z,3.23
2023-03-12T01:15:56.946Z,3.15
2023-03-12T01:16:58.753Z,3.12
2023-03-12T01:18:00.609Z,3.10
2023-03-12T01:19:02.879Z,3.09
2023-03-12T01:20:06.132Z,3.10
2023-03-12T01:21:07.937Z,3.14
2023-03-12T01:22:09.823Z,3.18
2023-03-12T01:23:11.719Z,3.23
2023-03-12T01:24:13.548Z,3.25
2023-03-12T01:25:15.950Z,3.27
2023-03-12T01:26:17.847Z,3.25
2023-03-12T01:27:20.629Z,3.24
2023-03-12T01:28:23.558Z,3.23
2023-03-12T01:29:25.419Z,3.22
2023-03-12T01:30:27.827Z,3.18
2023-03-12T01:31:29.616Z,3.18
2023-03-12T01:32:31.456Z,3.21
2023-03-12T01:33:33.259Z,3.23
2023-03-12T01:34:35.751Z,3.25
2023-03-12T01:35:39.685Z,3.26
2023-03-12T01:36:42.136Z,3.26
2023-03-12T01:37:43.915Z,3.23
2023-03-12T01:38:46.161Z,3.22
2023-03-12T01:39:47.921Z,3.17
2023-03-12T01:40:49.776Z,3.13
2023-03-12T01:41:51.609Z,3.06
2023-03-12T01:42:54.026Z,3.02
2023-03-12T01:43:55.888Z,3.02
2023-03-12T01:45:02.279Z,3.04
2023-03-12T01:46:04.133Z,3.07
2023-03-12T01:47:05.998Z,3.07
2023-03-12T01:48:07.814Z,3.10
2023-03-12T01:49:09.581Z,3.12
2023-03-12T01:50:11.422Z,3.09
2023-03-12T01:51:14.757Z,3.02
2023-03-12T01:52:21.288Z,2.98
2023-03-12T01:53:23.535Z,2.96
2023-03-12T01:54:25.347Z,2.95
2023-03-12T01:55:27.185Z,2.98
2023-03-12T01:56:32.563Z,3.01
2023-03-12T01:57:40.452Z,3.02
2023-03-12T01:58:44.360Z,3.01
2023-03-12T01:59:47.695Z,3.01
2023-03-12T02:00:49.466Z,3.00
2023-03-12T02:01:51.807Z,3.03
2023-03-12T02:02:54.950Z,2.96
2023-03-12T02:03:59.555Z,2.87
2023-03-12T02:05:09.639Z,2.90
2023-03-12T02:06:16.151Z,2.95
2023-03-12T02:07:18.315Z,2.99
2023-03-12T02:08:20.045Z,3.00
2023-03-12T02:09:23.425Z,2.94
2023-03-12T02:10:25.831Z,2.96
2023-03-12T02:11:27.752Z,2.96
2023-03-12T02:12:29.651Z,2.91
2023-03-12T02:13:31.498Z,2.92
2023-03-12T02:14:33.485Z,2.93
2023-03-12T02:15:36.151Z,2.92
2023-03-12T02:16:37.944Z,2.90
2023-03-12T02:17:40.809Z,2.89
2023-03-12T02:18:43.454Z,2.82
2023-03-12T02:19:54.423Z,2.79
2023-03-12T02:21:10.628Z,2.69
2023-03-12T02:22:13.554Z,2.70
2023-03-12T02:23:18.331Z,2.74
2023-03-12T02:24:29.337Z,2.77
2023-03-12T02:25:36.163Z,2.81
2023-03-12T02:26:38.682Z,2.85
2023-03-12T02:27:40.653Z,2.87
2023-03-12T02:28:44.450Z,2.90
2023-03-12T02:29:46.404Z,2.91
2023-03-12T02:30:49.432Z,2.90
2023-03-12T02:31:53.247Z,2.91
2023-03-12T02:32:55.415Z,2.92
2023-03-12T02:33:58.491Z,2.92
2023-03-12T02:35:00.833Z,2.94
2023-03-12T02:36:02.837Z,2.95
2023-03-12T02:37:04.725Z,2.95
2023-03-12T02:38:26.386Z,2.97
2023-03-12T02:39:28.728Z,2.98
2023-03-12T02:40:43.781Z,3.00
2023-03-12T02:41:48.671Z,2.93
2023-03-12T02:42:50.734Z,2.83
2023-03-12T02:43:58.228Z,2.76
2023-03-12T02:45:00.721Z,2.74
2023-03-12T02:46:02.583Z,2.75
2023-03-12T02:47:05.899Z,2.77
2023-03-12T02:48:09.465Z,2.80
2023-03-12T02:49:13.568Z,2.83
2023-03-12T02:50:15.896Z,2.83
2023-03-12T02:51:17.770Z,2.84
2023-03-12T02:52:19.600Z,2.84
2023-03-12T02:53:21.447Z,2.84
2023-03-12T02:54:23.568Z,2.77
2023-03-12T02:55:25.391Z,2.73
2023-03-12T02:56:28.117Z,2.74
2023-03-12T02:57:30.039Z,2.77
2023-03-12T02:58:31.877Z,2.80
2023-03-12T02:59:33.738Z,2.80
2023-03-12T03:00:35.643Z,2.79
2023-03-12T03:01:37.537Z,2.76
2023-03-12T03:02:39.888Z,2.75
2023-03-12T03:03:41.721Z,2.75
2023-03-12T03:04:43.458Z,2.75
2023-03-12T03:05:45.244Z,2.71
2023-03-12T03:06:48.614Z,2.69
2023-03-12T03:07:50.480Z,2.69
2023-03-12T03:08:52.430Z,2.67
2023-03-12T03:09:54.262Z,2.65
2023-03-12T03:10:56.234Z,2.65
2023-03-12T03:11:58.074Z,2.67
2023-03-12T03:13:00.047Z,2.69
2023-03-12T03:14:04.323Z,2.69
2023-03-12T03:15:06.580Z,2.70
2023-03-12T03:16:08.376Z,2.62
2023-03-12T03:17:10.210Z,2.56
2023-03-12T03:18:12.055Z,2.56
2023-03-12T03:19:13.999Z,2.58
2023-03-12T03:20:15.955Z,2.62
2023-03-12T03:21:18.207Z,2.66
2023-03-12T03:22:21.327Z,2.67
2023-03-12T03:23:23.221Z,2.65
2023-03-12T03:24:25.053Z,2.66
2023-03-12T03:25:26.900Z,2.69
2023-03-12T03:26:28.767Z,2.70
2023-03-12T03:27:30.638Z,2.71
2023-03-12T03:28:32.509Z,2.71
2023-03-12T03:29:34.573Z,2.68
2023-03-12T03:30:39.031Z,2.71
2023-03-12T03:31:40.896Z,2.66
2023-03-12T03:32:43.049Z,2.62
2023-03-12T03:33:45.540Z,2.59
2023-03-12T03:34:47.432Z,2.62
2023-03-12T03:35:49.722Z,2.55
2023-03-12T03:36:51.554Z,2.54
2023-03-12T03:37:53.343Z,2.56
2023-03-12T03:38:55.226Z,2.57
2023-03-12T03:39:57.005Z,2.57
2023-03-12T03:40:59.117Z,2.58
2023-03-12T03:42:00.969Z,2.60
2023-03-12T03:43:02.786Z,2.61
2023-03-12T03:44:05.589Z,2.60
2023-03-12T03:45:07.891Z,2.60
2023-03-12T03:46:11.059Z,2.61
2023-03-12T03:47:12.897Z,2.64
2023-03-12T03:48:15.266Z,2.66
2023-03-12T03:49:17.373Z,2.70
2023-03-12T03:50:19.325Z,2.72
2023-03-12T03:51:21.105Z,2.69
2023-03-12T03:52:23.005Z,2.64
2023-03-12T03:53:24.823Z,2.63
2023-03-12T03:54:26.729Z,2.65
2023-03-12T03:55:28.487Z,2.67
2023-03-12T03:56:30.360Z,2.69
2023-03-12T03:57:32.244Z,2.68
2023-03-12T03:58:34.067Z,2.64
2023-03-12T03:59:36.127Z,2.62
2023-03-12T04:00:37.963Z,2.58
2023-03-12T04:01:39.748Z,2.50
2023-03-12T04:02:41.560Z,2.46
2023-03-12T04:03:43.420Z,2.42
2023-03-12T04:04:45.309Z,2.35
2023-03-12T04:05:47.208Z,2.33
2023-03-12T04:06:49.031Z,2.31
2023-03-12T04:07:52.861Z,2.27
2023-03-12T04:08:54.763Z,2.29
2023-03-12T04:09:57.872Z,2.29
2023-03-12T04:10:59.750Z,2.23
2023-03-12T04:12:01.518Z,2.20
2023-03-12T04:13:03.445Z,2.20
2023-03-12T04:14:05.310Z,2.20
2023-03-12T04:15:07.412Z,2.15
2023-03-12T04:16:09.481Z,2.10
2023-03-12T04:17:11.377Z,2.11
2023-03-12T04:18:13.233Z,2.12
2023-03-12T04:19:15.123Z,2.11
2023-03-12T04:20:17.088Z,2.10
2023-03-12T04:21:19.038Z,2.08
2023-03-12T04:22:20.884Z,2.05
2023-03-12T04:23:22.812Z,2.07
2023-03-12T04:24:24.581Z,2.14
2023-03-12T04:25:26.512Z,2.19
2023-03-12T04:26:28.352Z,2.22
2023-03-12T04:27:30.258Z,2.26
2023-03-12T04:28:32.289Z,2.29
2023-03-12T04:29:34.180Z,2.27
2023-03-12T04:30:38.424Z,2.22
2023-03-12T04:31:40.288Z,2.20
2023-03-12T04:32:42.284Z,2.21
2023-03-12T04:33:44.079Z,2.18
2023-03-12T04:34:45.968Z,2.17
2023-03-12T04:35:52.247Z,2.09
2023-03-12T04:36:54.035Z,2.05
2023-03-12T04:37:55.875Z,2.07
2023-03-12T04:38:57.759Z,2.08
2023-03-12T04:39:59.542Z,2.10
2023-03-12T04:41:08.935Z,2.12
2023-03-12T04:42:11.118Z,2.14
2023-03-12T04:43:13.125Z,2.16
2023-03-12T04:44:15.287Z,2.13
2023-03-12T04:45:17.300Z,2.10
2023-03-12T04:46:19.288Z,2.06
2023-03-12T04:47:21.247Z,2.01
2023-03-12T04:48:23.223Z,2.04
2023-03-12T04:49:25.104Z,2.09
2023-03-12T04:50:26.921Z,2.13
2023-03-12T04:51:29.924Z,2.14
2023-03-12T04:52:31.707Z,2.11
2023-03-12T04:53:34.019Z,2.09
2023-03-12T04:54:35.852Z,2.09
2023-03-12T04:55:37.659Z,2.06
2023-03-12T04:56:39.566Z,2.08
2023-03-12T04:57:41.412Z,2.10
2023-03-12T04:58:43.214Z,2.08
2023-03-12T04:59:45.100Z,2.06
2023-03-12T05:00:47.481Z,2.06
2023-03-12T05:01:49.346Z,2.07
2023-03-12T05:02:51.077Z,2.10
2023-03-12T05:03:53.701Z,2.12
2023-03-12T05:04:56.937Z,2.15
2023-03-12T05:05:59.040Z,2.16
2023-03-12T05:07:00.826Z,2.10
2023-03-12T05:08:03.376Z,2.04
2023-03-12T05:09:05.377Z,1.98
2023-03-12T05:10:07.699Z,2.00
2023-03-12T05:11:09.544Z,1.98
2023-03-12T05:12:11.389Z,1.98
2023-03-12T05:13:14.263Z,1.98
2023-03-12T05:14:16.119Z,1.96
2023-03-12T05:15:18.090Z,1.97
2023-03-12T05:16:20.392Z,1.98
2023-03-12T05:17:22.335Z,1.99
2023-03-12T05:18:24.123Z,2.01
2023-03-12T05:19:25.941Z,2.01
2023-03-12T05:20:27.771Z,2.02
2023-03-12T05:21:29.592Z,2.03
2023-03-12T05:22:31.452Z,1.98
2023-03-12T05:23:33.680Z,1.90
2023-03-12T05:24:36.230Z,1.90
2023-03-12T05:25:41.658Z,1.94
2023-03-12T05:26:43.801Z,1.96
2023-03-12T05:27:45.872Z,1.96
2023-03-12T05:28:47.767Z,1.99
2023-03-12T05:29:49.740Z,1.98
2023-03-12T05:30:51.556Z,2.00
2023-03-12T05:31:53.556Z,2.03
2023-03-12T05:32:55.553Z,2.04
2023-03-12T05:33:57.385Z,1.96
2023-03-12T05:34:59.217Z,1.86
2023-03-12T05:36:01.081Z,1.83
2023-03-12T05:37:03.031Z,1.79
2023-03-12T05:38:04.835Z,1.80
2023-03-12T05:39:06.760Z,1.80
2023-03-12T05:40:11.084Z,1.83
2023-03-12T05:41:39.376Z,1.89
2023-03-12T05:42:41.308Z,1.80
2023-03-12T05:43:43.383Z,1.76
2023-03-12T05:44:45.151Z,1.77
2023-03-12T05:45:47.510Z,1.75
2023-03-12T05:46:49.359Z,1.78
2023-03-12T05:47:51.122Z,1.78
2023-03-12T05:48:53.711Z,1.74
2023-03-12T05:49:55.502Z,1.70
2023-03-12T05:50:58.146Z,1.67
2023-03-12T05:52:00.157Z,1.69
2023-03-12T05:53:01.917Z,1.74
2023-03-12T05:54:04.082Z,1.79
2023-03-12T05:55:06.174Z,1.86
2023-03-12T05:56:09.376Z,1.88
2023-03-12T05:57:11.115Z,1.83
2023-03-12T05:58:12.912Z,1.80
2023-03-12T05:59:14.770Z,1.79
2023-03-12T06:00:16.985Z,1.80
2023-03-12T06:01:26.846Z,1.81
2023-03-12T06:02:28.720Z,1.84
2023-03-12T06:03:30.726Z,1.88
2023-03-12T06:04:32.688Z,1.89
2023-03-12T06:05:36.307Z,1.86
2023-03-12T06:06:38.239Z,1.86
2023-03-12T06:07:40.028Z,1.92
2023-03-12T06:08:42.321Z,1.90
2023-03-12T06:09:44.138Z,1.87
2023-03-12T06:10:45.906Z,1.88
2023-03-12T06:11:47.808Z,1.88
2023-03-12T06:12:49.590Z,1.88
2023-03-12T06:13:51.368Z,1.91
2023-03-12T06:14:53.192Z,1.90
2023-03-12T06:15:54.965Z,1.94
2023-03-12T06:16:57.042Z,1.98
2023-03-12T06:17:58.853Z,2.00
2023-03-12T06:19:02.239Z,2.00
2023-03-12T06:20:04.188Z,2.00
2023-03-12T06:21:13.451Z,2.00
2023-03-12T06:22:15.331Z,2.03
2023-03-12T06:23:17.511Z,2.06
2023-03-12T06:24:20.044Z,2.00
2023-03-12T06:25:21.894Z,2.00
2023-03-12T06:26:23.952Z,2.06
2023-03-12T06:27:25.905Z,2.10
2023-03-12T06:28:27.735Z,2.13
2023-03-12T06:29:29.655Z,2.15
2023-03-12T06:30:32.387Z,2.08
2023-03-12T06:31:36.579Z,2.07
2023-03-12T06:32:39.876Z,2.04
2023-03-12T06:33:41.810Z,2.04
2023-03-12T06:34:43.556Z,1.98
2023-03-12T06:35:45.911Z,1.94
2023-03-12T06:36:47.731Z,1.96
2023-03-12T06:37:49.507Z,2.00
2023-03-12T06:38:51.339Z,2.03
2023-03-12T06:39:53.263Z,2.02
2023-03-12T06:40:59.078Z,1.91
2023-03-12T06:42:00.900Z,1.93
2023-03-12T06:43:02.712Z,1.97
2023-03-12T06:44:06.434Z,2.01
2023-03-12T06:45:09.283Z,2.07
2023-03-12T06:46:17.057Z,2.04
2023-03-12T06:47:18.847Z,1.99
2023-03-12T06:48:20.689Z,2.04
2023-03-12T06:49:22.749Z,2.09
2023-03-12T06:50:24.567Z,2.06
2023-03-12T06:51:26.448Z,2.06
2023-03-12T06:52:28.276Z,2.08
2023-03-12T06:53:30.182Z,2.10
2023-03-12T06:54:32.475Z,2.12
2023-03-12T06:55:34.345Z,2.07
2023-03-12T06:56:36.244Z,2.07
2023-03-12T06:57:38.103Z,2.06
2023-03-12T06:58:39.916Z,2.07
2023-03-12T06:59:41.790Z,2.13
2023-03-12T07:00:43.694Z,2.18
2023-03-12T07:01:45.629Z,2.21
2023-03-12T07:02:47.461Z,2.25
2023-03-12T07:03:49.488Z,2.22
2023-03-12T07:04:51.379Z,2.18
2023-03-12T07:05:56.003Z,2.17
2023-03-12T07:06:57.918Z,2.15
2023-03-12T07:07:59.793Z,2.18
2023-03-12T07:09:01.662Z,2.24
2023-03-12T07:10:03.579Z,2.23
2023-03-12T07:11:05.365Z,2.18
2023-03-12T07:12:07.356Z,2.16
2023-03-12T07:13:09.356Z,2.23
2023-03-12T07:14:11.815Z,2.31
2023-03-12T07:15:13.718Z,2.37
2023-03-12T07:16:15.550Z,2.43
2023-03-12T07:17:17.441Z,2.38
2023-03-12T07:18:19.342Z,2.42
2023-03-12T07:19:21.170Z,2.49
2023-03-12T07:20:23.015Z,2.53
2023-03-12T07:21:24.858Z,2.51
2023-03-12T07:22:26.717Z,2.48
2023-03-12T07:23:28.844Z,2.50
2023-03-12T07:24:30.709Z,2.46
2023-03-12T07:25:35.195Z,2.49
2023-03-12T07:26:37.116Z,2.54
2023-03-12T07:27:38.976Z,2.60
2023-03-12T07:28:40.854Z,2.63
2023-03-12T07:29:42.793Z,2.63
2023-03-12T07:30:50.545Z,2.60
2023-03-12T07:31:52.360Z,2.60
2023-03-12T07:32:54.318Z,2.60
2023-03-12T07:33:56.895Z,2.65
2023-03-12T07:34:59.240Z,2.67
2023-03-12T07:36:01.442Z,2.76
2023-03-12T07:37:03.575Z,2.79
2023-03-12T07:38:06.045Z,2.84
2023-03-12T07:39:09.497Z,2.87
2023-03-12T07:40:11.561Z,2.85
2023-03-12T07:41:13.411Z,2.83
2023-03-12T07:42:15.296Z,2.86
2023-03-12T07:43:18.624Z,2.96
2023-03-12T07:44:22.381Z,3.08
2023-03-12T07:45:25.056Z,3.15
2023-03-12T07:46:26.928Z,3.23
2023-03-12T07:47:28.811Z,3.27
2023-03-12T07:48:30.688Z,3.30
2023-03-12T07:49:32.518Z,3.34
2023-03-12T07:50:34.833Z,3.40
2023-03-12T07:51:36.641Z,3.48
2023-03-12T07:52:38.475Z,3.56
2023-03-12T07:53:40.325Z,3.65
2023-03-12T07:54:42.275Z,3.68
2023-03-12T07:55:46.307Z,3.74
2023-03-12T07:56:48.357Z,3.81
2023-03-12T07:57:50.385Z,3.89
2023-03-12T07:58:52.768Z,3.94
2023-03-12T07:59:54.646Z,3.98
2023-03-12T08:00:56.971Z,4.05
2023-03-12T08:01:58.918Z,4.16
2023-03-12T08:03:00.955Z,4.17
2023-03-12T08:04:03.201Z,4.21
2023-03-12T08:05:05.500Z,4.29
2023-03-12T08:06:07.705Z,4.37
2023-03-12T08:07:09.634Z,4.41
2023-03-12T08:08:11.635Z,4.46
2023-03-12T08:09:13.495Z,4.54
2023-03-12T08:10:15.346Z,4.58
2023-03-12T08:11:17.288Z,4.66
2023-03-12T08:12:19.151Z,4.70
2023-03-12T08:13:23.257Z,4.75
2023-03-12T08:14:25.263Z,4.79
2023-03-12T08:15:27.039Z,4.85
2023-03-12T08:16:28.871Z,4.87
2023-03-12T08:17:30.717Z,4.88
2023-03-12T08:18:32.580Z,4.90
2023-03-12T08:19:34.366Z,4.92
2023-03-12T08:20:36.714Z,4.93
2023-03-12T08:21:38.480Z,5.03
2023-03-12T08:22:40.832Z,5.10
2023-03-12T08:23:43.045Z,5.14
2023-03-12T08:24:44.939Z,5.19
2023-03-12T08:25:47.728Z,5.23
2023-03-12T08:26:49.655Z,5.33
2023-03-12T08:27:51.489Z,5.45
2023-03-12T08:28:53.331Z,5.55
2023-03-12T08:29:55.293Z,5.60
2023-03-12T08:30:59.248Z,5.63
2023-03-12T08:32:05.352Z,5.66
2023-03-12T08:33:07.425Z,5.70
2023-03-12T08:34:09.383Z,5.73
2023-03-12T08:35:11.210Z,5.76
2023-03-12T08:36:13.534Z,5.79
2023-03-12T08:37:15.352Z,5.80
2023-03-12T08:38:17.816Z,5.82
2023-03-12T08:39:19.621Z,5.86
2023-03-12T08:40:21.487Z,5.88
2023-03-12T08:41:23.295Z,5.90
2023-03-12T08:42:25.127Z,5.91
2023-03-12T08:43:29.328Z,5.90
2023-03-12T08:44:31.916Z,5.93
2023-03-12T08:45:34.383Z,5.93
2023-03-12T08:46:36.303Z,5.96
2023-03-12T08:47:40.202Z,5.99
2023-03-12T08:48:42.088Z,5.98
2023-03-12T08:49:43.925Z,5.99
2023-03-12T08:50:45.781Z,6.05
2023-03-12T08:51:47.611Z,6.07
2023-03-12T08:52:49.415Z,6.14
2023-03-12T08:53:51.228Z,6.20
2023-03-12T08:54:53.159Z,6.24
2023-03-12T08:55:55.510Z,6.24
2023-03-12T08:56:57.412Z,6.27
2023-03-12T08:57:59.220Z,6.28
2023-03-12T08:59:01.025Z,6.32
2023-03-12T09:00:05.816Z,6.33
2023-03-12T09:01:14.280Z,6.36
2023-03-12T09:02:16.163Z,6.39
2023-03-12T09:03:18.433Z,6.35
2023-03-12T09:04:20.317Z,6.38
2023-03-12T09:05:22.756Z,6.40
2023-03-12T09:06:24.802Z,6.42
2023-03-12T09:07:29.461Z,6.45
2023-03-12T09:08:34.198Z,6.45
2023-03-12T09:09:36.107Z,6.48
2023-03-12T09:10:38.465Z,6.52
2023-03-12T09:11:41.162Z,6.49
2023-03-12T09:12:43.196Z,6.50
2023-03-12T09:14:08.507Z,6.51
2023-03-12T09:15:07.513Z,6.57
2023-03-12T09:16:09.353Z,6.56
2023-03-12T09:17:11.215Z,6.56
2023-03-12T09:18:13.138Z,6.54
2023-03-12T09:19:15.059Z,6.53
2023-03-12T09:20:16.921Z,6.55
2023-03-12T09:21:18.821Z,6.60
2023-03-12T09:22:20.787Z,6.61
2023-03-12T09:23:22.758Z,6.63
2023-03-12T09:24:24.821Z,6.61
2023-03-12T09:25:26.757Z,6.64
2023-03-12T09:26:28.781Z,6.68
2023-03-12T09:27:30.661Z,6.74
2023-03-12T09:28:32.444Z,6.74
2023-03-12T09:29:34.319Z,6.79
2023-03-12T09:30:36.231Z,6.84
2023-03-12T09:31:38.155Z,6.90
2023-03-12T09:32:40.105Z,6.91
2023-03-12T09:33:42.201Z,6.92
2023-03-12T09:34:44.037Z,6.94
2023-03-12T09:35:45.934Z,6.95
2023-03-12T09:36:47.917Z,7.00
2023-03-12T09:37:51.557Z,7.01
2023-03-12T09:38:54.355Z,6.96
2023-03-12T09:39:56.202Z,6.93
2023-03-12T09:40:58.294Z,6.95
2023-03-12T09:42:00.102Z,6.97
2023-03-12T09:43:06.809Z,7.00
2023-03-12T09:44:17.890Z,7.01
2023-03-12T09:45:27.219Z,6.99
2023-03-12T09:46:42.012Z,6.99
2023-03-12T09:47:47.961Z,7.06
2023-03-12T09:48:50.657Z,7.12
2023-03-12T09:49:57.359Z,7.16
2023-03-12T09:51:01.811Z,7.20
2023-03-12T09:52:08.501Z,7.24
2023-03-12T09:53:16.333Z,7.29
2023-03-12T09:54:24.212Z,7.35
2023-03-12T09:55:26.627Z,7.40
2023-03-12T09:56:28.787Z,7.41
2023-03-12T09:57:30.648Z,7.37
2023-03-12T09:58:33.253Z,7.35
2023-03-12T09:59:37.166Z,7.34
2023-03-12T10:00:39.208Z,7.31
2023-03-12T10:01:44.582Z,7.22
2023-03-12T10:03:05.236Z,7.22
2023-03-12T10:04:37.714Z,7.25
2023-03-12T10:06:04.272Z,7.26
2023-03-12T10:07:21.121Z,7.32
2023-03-12T10:08:33.837Z,7.36
2023-03-12T10:09:54.605Z,7.33
2023-03-12T10:11:01.276Z,7.26
2023-03-12T10:12:05.853Z,7.21
2023-03-12T10:13:22.983Z,7.22
2023-03-12T10:14:27.468Z,7.22
2023-03-12T10:15:44.729Z,7.16
2023-03-12T10:16:55.243Z,7.17
2023-03-12T10:18:20.500Z,7.24
2023-03-12T10:19:28.378Z,7.26
2023-03-12T10:20:35.726Z,7.30
2023-03-12T10:21:55.433Z,7.31
2023-03-12T10:22:57.398Z,7.34
2023-03-12T10:24:13.508Z,7.30
2023-03-12T10:25:22.346Z,7.34
2023-03-12T10:26:26.293Z,7.35
2023-03-12T10:27:29.409Z,7.36
2023-03-12T10:28:34.715Z,7.40
2023-03-12T10:29:39.900Z,7.43
2023-03-12T10:30:45.078Z,7.38
2023-03-12T10:31:52.923Z,7.37
2023-03-12T10:33:04.687Z,7.38
2023-03-12T10:34:15.570Z,7.39
2023-03-12T10:35:21.734Z,7.38
2023-03-12T10:36:37.112Z,7.40
2023-03-12T10:37:44.254Z,7.42
2023-03-12T10:38:48.704Z,7.43
2023-03-12T10:39:51.493Z,7.46
2023-03-12T10:40:53.453Z,7.49
2023-03-12T10:41:56.091Z,7.55
2023-03-12T10:42:58.082Z,7.60
2023-03-12T10:44:02.668Z,7.64
2023-03-12T10:45:10.550Z,7.69
2023-03-12T10:46:15.362Z,7.75
2023-03-12T10:47:29.442Z,7.75
2023-03-12T10:48:31.346Z,7.69
2023-03-12T10:49:34.935Z,7.63
2023-03-12T10:50:38.044Z,7.58
2023-03-12T10:52:06.440Z,7.63
2023-03-12T10:53:19.615Z,7.61
2023-03-12T10:54:22.752Z,7.64
2023-03-12T10:55:29.944Z,7.57
2023-03-12T10:56:48.117Z,7.32
2023-03-12T10:57:51.023Z,7.32
2023-03-12T10:58:53.635Z,7.38
2023-03-12T11:00:13.257Z,7.35
2023-03-12T11:01:15.109Z,7.27
2023-03-12T11:02:29.930Z,7.31
2023-03-12T11:03:32.298Z,7.26
2023-03-12T11:04:34.315Z,7.28
2023-03-12T11:05:37.206Z,7.17
2023-03-12T11:06:39.599Z,7.08
2023-03-12T11:07:44.366Z,7.01
2023-03-12T11:09:15.859Z,6.94
2023-03-12T11:10:18.730Z,7.04
2023-03-12T11:11:30.923Z,7.03
2023-03-12T11:12:33.163Z,7.01
2023-03-12T11:13:34.899Z,6.96
2023-03-12T11:14:45.727Z,7.08
2023-03-12T11:15:48.188Z,7.10
2023-03-12T11:16:51.054Z,6.88
2023-03-12T11:17:52.908Z,6.93
2023-03-12T11:19:01.601Z,6.89
2023-03-12T11:20:19.303Z,6.88
2023-03-12T11:21:21.300Z,6.95
2023-03-12T11:22:34.241Z,6.95
2023-03-12T11:23:37.606Z,6.97
2023-03-12T11:24:58.906Z,7.00
2023-03-12T11:26:02.335Z,6.88
2023-03-12T11:27:27.121Z,6.75
2023-03-12T11:28:39.753Z,6.79
2023-03-12T11:29:47.330Z,6.85
2023-03-12T11:30:52.463Z,6.87
2023-03-12T11:32:06.190Z,6.89
2023-03-12T11:33:10.139Z,6.93
2023-03-12T11:34:32.195Z,6.92
2023-03-12T11:35:40.072Z,6.86
2023-03-12T11:37:02.246Z,6.91
2023-03-12T11:38:10.870Z,6.85
2023-03-12T11:39:15.542Z,6.91
2023-03-12T11:40:23.090Z,6.87
2023-03-12T11:41:31.611Z,6.87
2023-03-12T11:42:36.084Z,6.79
2023-03-12T11:43:52.790Z,6.80
2023-03-12T11:45:00.372Z,6.91
2023-03-12T11:46:08.430Z,6.99
2023-03-12T11:47:16.022Z,7.01
2023-03-12T11:48:36.310Z,7.02
2023-03-12T11:49:41.156Z,7.01
2023-03-12T11:50:47.491Z,6.99
2023-03-12T11:52:08.216Z,6.99
2023-03-12T11:53:36.904Z,7.00
2023-03-12T11:54:44.825Z,6.92
2023-03-12T11:55:52.962Z,6.96
2023-03-12T11:56:57.185Z,6.92
2023-03-12T11:58:17.607Z,6.94
2023-03-12T11:59:22.512Z,6.92
2023-03-12T12:00:32.943Z,6.93
2023-03-12T12:01:34.713Z,7.02
2023-03-12T12:02:45.134Z,7.03
2023-03-12T12:03:47.008Z,6.95
2023-03-12T12:04:48.767Z,6.89
2023-03-12T12:06:06.077Z,6.94
2023-03-12T12:07:14.098Z,6.90
2023-03-12T12:08:15.808Z,6.91
2023-03-12T12:09:21.340Z,6.93
2023-03-12T12:10:40.288Z,6.90
2023-03-12T12:11:42.061Z,6.97
2023-03-12T12:12:43.971Z,6.91
2023-03-12T12:14:04.606Z,6.91
2023-03-12T12:15:15.195Z,7.01
2023-03-12T12:16:17.189Z,7.05
2023-03-12T12:17:29.776Z,6.93
2023-03-12T12:18:31.566Z,6.90
2023-03-12T12:20:09.347Z,6.90
2023-03-12T12:21:23.756Z,6.99
2023-03-12T12:22:36.773Z,7.04
2023-03-12T12:23:57.819Z,6.98
2023-03-12T12:24:59.585Z,6.95
2023-03-12T12:26:09.057Z,6.94
2023-03-12T12:27:13.687Z,6.82
2023-03-12T12:28:23.001Z,6.86
2023-03-12T12:29:36.269Z,6.91
2023-03-12T12:30:50.833Z,6.92
2023-03-12T12:31:59.923Z,6.97
2023-03-12T12:33:15.082Z,6.97
2023-03-12T12:34:28.430Z,6.89
2023-03-12T12:35:35.917Z,6.84
2023-03-12T12:36:38.102Z,6.73
2023-03-12T12:37:55.717Z,6.63
2023-03-12T12:39:01.814Z,6.58
2023-03-12T12:40:11.579Z,6.59
2023-03-12T12:41:21.486Z,6.60
2023-03-12T12:42:27.337Z,6.58
2023-03-12T12:43:35.796Z,6.50
2023-03-12T12:44:49.179Z,6.52
2023-03-12T12:45:52.674Z,6.56
2023-03-12T12:46:59.212Z,6.67
2023-03-12T12:48:15.303Z,6.72
2023-03-12T12:49:26.346Z,6.74
2023-03-12T12:50:31.963Z,6.78
2023-03-12T12:51:36.954Z,6.81
2023-03-12T12:52:39.201Z,6.76
2023-03-12T12:53:41.073Z,6.76
2023-03-12T12:54:48.893Z,6.74
2023-03-12T12:56:00.735Z,6.79
2023-03-12T12:57:07.601Z,6.81
2023-03-12T12:58:12.546Z,6.77
2023-03-12T12:59:31.969Z,6.73
2023-03-12T13:00:37.339Z,6.71
2023-03-12T13:01:39.870Z,6.69
2023-03-12T13:02:43.341Z,6.70
2023-03-12T13:03:46.904Z,6.72
2023-03-12T13:04:49.349Z,6.78
2023-03-12T13:05:57.098Z,6.76
2023-03-12T13:06:59.255Z,6.83
2023-03-12T13:08:01.400Z,6.77
2023-03-12T13:09:14.489Z,6.81
2023-03-12T13:10:34.784Z,6.84
2023-03-12T13:11:41.639Z,6.88
2023-03-12T13:12:56.970Z,6.95
2023-03-12T13:13:58.992Z,7.01
2023-03-12T13:15:02.311Z,7.01
2023-03-12T13:16:22.422Z,6.96
2023-03-12T13:17:27.688Z,6.87
2023-03-12T13:18:29.711Z,6.85
2023-03-12T13:19:40.642Z,6.88
2023-03-12T13:20:47.936Z,6.94
2023-03-12T13:21:54.612Z,6.97
2023-03-12T13:23:15.392Z,6.91
2023-03-12T13:24:23.234Z,6.88
2023-03-12T13:25:30.793Z,6.85
2023-03-12T13:26:32.678Z,6.80
2023-03-12T13:27:39.507Z,6.71
2023-03-12T13:28:56.959Z,6.71
2023-03-12T13:30:21.572Z,6.75
2023-03-12T13:31:29.528Z,6.66
2023-03-12T13:32:39.260Z,6.65
2023-03-12T13:33:46.847Z,6.64
2023-03-12T13:34:49.176Z,6.61
2023-03-12T13:36:14.895Z,6.52
2023-03-12T13:37:22.124Z,6.47
2023-03-12T13:38:53.470Z,6.43
2023-03-12T13:39:55.489Z,6.52
2023-03-12T13:41:03.544Z,6.56
2023-03-12T13:42:23.769Z,6.57
2023-03-12T13:43:34.352Z,6.52
2023-03-12T13:44:40.421Z,6.48
2023-03-12T13:45:47.974Z,6.44
2023-03-12T13:46:57.805Z,6.38
2023-03-12T13:48:01.969Z,6.33
2023-03-12T13:49:05.713Z,6.29
2023-03-12T13:50:15.784Z,6.30
2023-03-12T13:51:22.052Z,6.32
2023-03-12T13:52:27.263Z,6.27
2023-03-12T13:53:37.653Z,6.23
2023-03-12T13:54:44.386Z,6.20
2023-03-12T13:55:49.949Z,6.23
2023-03-12T13:56:58.060Z,6.25
2023-03-12T13:58:02.868Z,6.15
2023-03-12T13:59:15.396Z,6.09
2023-03-12T14:00:26.080Z,6.06
2023-03-12T14:01:30.817Z,6.01
2023-03-12T14:02:39.577Z,6.03
2023-03-12T14:03:44.866Z,6.07
2023-03-12T14:04:48.899Z,6.04
2023-03-12T14:05:53.554Z,6.03
2023-03-12T14:06:56.001Z,6.07
2023-03-12T14:08:16.817Z,6.10
2023-03-12T14:09:25.249Z,6.12
2023-03-12T14:10:35.855Z,6.13
2023-03-12T14:11:56.743Z,6.21
2023-03-12T14:13:16.829Z,6.18
2023-03-12T14:14:44.587Z,6.09
2023-03-12T14:16:04.853Z,5.93
2023-03-12T14:17:13.440Z,5.92
2023-03-12T14:18:24.279Z,5.99
2023-03-12T14:19:31.100Z,6.04